createdAt,value
2019-03-26T00:00:53.767Z,17.54
2019-03-26T00:03:20.080Z,17.57
2019-03-26T00:05:46.398Z,17.56
2019-03-26T00:08:12.705Z,17.55
2019-03-26T00:10:39.017Z,17.51
2019-03-26T00:13:05.323Z,17.50
2019-03-26T00:15:31.633Z,17.50
2019-03-26T00:17:57.961Z,17.49
2019-03-26T00:20:24.266Z,17.47
2019-03-26T00:22:50.573Z,17.46
2019-03-26T00:25:16.885Z,17.42
2019-03-26T00:27:43.201Z,17.42
2019-03-26T00:30:09.503Z,17.41
2019-03-26T00:32:35.835Z,17.40
2019-03-26T00:35:02.148Z,17.39
2019-03-26T00:37:28.448Z,17.38
2019-03-26T00:39:54.757Z,17.36
2019-03-26T00:42:21.068Z,17.35
2019-03-26T00:44:47.387Z,17.34
2019-03-26T00:47:13.694Z,17.32
2019-03-26T00:49:39.997Z,17.30
2019-03-26T00:52:06.324Z,17.28
2019-03-26T00:54:32.623Z,17.26
2019-03-26T00:56:58.936Z,17.25
2019-03-26T00:59:25.244Z,17.22
2019-03-26T01:01:51.550Z,17.21
2019-03-26T01:04:17.855Z,17.18
2019-03-26T01:06:44.247Z,17.19
2019-03-26T01:09:10.559Z,17.16
2019-03-26T01:11:36.865Z,17.13
2019-03-26T01:14:03.205Z,17.13
2019-03-26T01:16:29.510Z,17.11
2019-03-26T01:18:55.810Z,17.10
2019-03-26T01:21:22.132Z,17.09
2019-03-26T01:23:48.447Z,17.07
2019-03-26T01:26:14.760Z,17.05
2019-03-26T01:28:41.070Z,17.04
2019-03-26T01:31:07.372Z,17.03
2019-03-26T01:33:33.682Z,17.02
2019-03-26T01:35:59.990Z,17.01
2019-03-26T01:38:26.287Z,17.00
2019-03-26T01:40:52.595Z,16.98
2019-03-26T01:43:18.906Z,16.93
2019-03-26T01:45:45.208Z,16.96
2019-03-26T01:48:11.516Z,16.94
2019-03-26T01:50:37.828Z,16.93
2019-03-26T01:53:04.136Z,16.91
2019-03-26T01:55:30.452Z,16.89
2019-03-26T01:57:56.759Z,16.89
2019-03-26T02:00:23.063Z,16.88
2019-03-26T02:02:49.371Z,16.87
2019-03-26T02:05:15.681Z,16.86
2019-03-26T02:07:41.983Z,16.84
2019-03-26T02:10:08.297Z,16.84
2019-03-26T02:12:34.599Z,16.82
2019-03-26T02:15:00.903Z,16.79
2019-03-26T02:17:27.217Z,16.78
2019-03-26T02:19:53.516Z,16.78
2019-03-26T02:22:19.823Z,16.77
2019-03-26T02:24:46.129Z,16.76
2019-03-26T02:27:12.441Z,16.75
2019-03-26T02:29:38.751Z,16.72
2019-03-26T02:32:05.068Z,16.71
2019-03-26T02:34:31.371Z,16.69
2019-03-26T02:36:57.704Z,16.68
2019-03-26T02:39:24.000Z,16.66
2019-03-26T02:41:50.347Z,16.65
2019-03-26T02:44:16.654Z,16.63
2019-03-26T02:46:42.967Z,16.63
2019-03-26T02:49:09.269Z,16.61
2019-03-26T02:51:35.569Z,16.58
2019-03-26T02:54:01.885Z,16.57
2019-03-26T02:56:28.197Z,16.55
2019-03-26T02:58:54.519Z,16.54
2019-03-26T03:01:20.820Z,16.52
2019-03-26T03:03:47.124Z,16.49
2019-03-26T03:06:13.435Z,16.50
2019-03-26T03:08:39.793Z,16.49
2019-03-26T03:11:06.095Z,16.47
2019-03-26T03:13:32.481Z,16.46
2019-03-26T03:15:58.803Z,16.44
2019-03-26T03:18:25.111Z,16.43
2019-03-26T03:20:51.417Z,16.42
2019-03-26T03:23:17.724Z,16.41
2019-03-26T03:25:44.046Z,16.36
2019-03-26T03:28:10.344Z,16.37
2019-03-26T03:30:36.688Z,16.36
2019-03-26T03:33:02.981Z,16.33
2019-03-26T03:35:29.291Z,16.33
2019-03-26T03:37:55.604Z,16.31
2019-03-26T03:40:21.924Z,16.29
2019-03-26T03:42:48.312Z,16.29
2019-03-26T03:45:14.541Z,16.27
2019-03-26T03:47:40.852Z,16.27
2019-03-26T03:50:07.151Z,16.25
2019-03-26T03:52:33.460Z,16.25
2019-03-26T03:54:59.765Z,16.23
2019-03-26T03:57:26.066Z,16.22
2019-03-26T03:59:52.380Z,16.20
2019-03-26T04:02:18.689Z,16.19
2019-03-26T04:04:44.994Z,16.18
2019-03-26T04:07:11.330Z,16.16
2019-03-26T04:09:37.627Z,16.16
2019-03-26T04:12:03.934Z,16.14
2019-03-26T04:14:30.519Z,16.14
2019-03-26T04:16:56.845Z,16.12
2019-03-26T04:19:23.179Z,16.11
2019-03-26T04:21:49.466Z,16.10
2019-03-26T04:24:15.819Z,16.08
2019-03-26T04:26:42.131Z,16.00
2019-03-26T04:29:08.435Z,16.05
2019-03-26T04:31:34.769Z,16.04
2019-03-26T04:34:01.070Z,16.04
2019-03-26T04:36:27.379Z,16.03
2019-03-26T04:38:53.684Z,16.03
2019-03-26T04:41:20.022Z,16.03
2019-03-26T04:43:46.325Z,16.01
2019-03-26T04:46:12.640Z,16.02
2019-03-26T04:48:38.964Z,16.03
2019-03-26T04:51:05.269Z,16.03
2019-03-26T04:53:34.124Z,16.02
2019-03-26T04:55:57.942Z,16.01
2019-03-26T04:58:24.276Z,16.00
2019-03-26T05:00:50.578Z,15.99
2019-03-26T05:03:16.883Z,15.97
2019-03-26T05:05:43.188Z,15.96
2019-03-26T05:08:09.496Z,15.95
2019-03-26T05:10:35.922Z,15.93
2019-03-26T05:13:02.240Z,15.93
2019-03-26T05:15:28.553Z,15.92
2019-03-26T05:17:56.717Z,15.91
2019-03-26T05:20:21.154Z,15.91
2019-03-26T05:22:47.467Z,15.89
2019-03-26T05:25:13.777Z,15.89
2019-03-26T05:27:45.181Z,15.89
2019-03-26T05:30:06.393Z,15.89
2019-03-26T05:32:32.696Z,15.90
2019-03-26T05:34:59.059Z,15.87
2019-03-26T05:37:25.331Z,15.89
2019-03-26T05:39:51.645Z,15.90
2019-03-26T05:42:17.971Z,15.91
2019-03-26T05:44:44.274Z,16.01
2019-03-26T05:47:10.581Z,16.03
2019-03-26T05:49:36.889Z,16.06
2019-03-26T05:52:03.198Z,15.92
2019-03-26T05:54:29.728Z,15.93
2019-03-26T05:56:56.034Z,15.92
2019-03-26T05:59:22.334Z,15.90
2019-03-26T06:01:48.644Z,16.02
2019-03-26T06:04:14.943Z,15.79
2019-03-26T06:06:41.473Z,15.54
2019-03-26T06:09:07.782Z,15.43
2019-03-26T06:11:34.095Z,15.26
2019-03-26T06:14:00.409Z,15.27
2019-03-26T06:16:37.808Z,15.14
2019-03-26T06:18:53.105Z,15.04
2019-03-26T06:21:19.424Z,15.03
2019-03-26T06:23:45.731Z,14.93
2019-03-26T06:26:12.033Z,14.82
2019-03-26T06:28:38.340Z,14.79
2019-03-26T06:31:04.645Z,14.86
2019-03-26T06:33:30.971Z,14.91
2019-03-26T06:35:57.276Z,14.86
2019-03-26T06:38:23.602Z,14.82
2019-03-26T06:40:49.905Z,14.84
2019-03-26T06:43:16.219Z,14.89
2019-03-26T06:45:42.532Z,14.96
2019-03-26T06:48:09.948Z,15.01
2019-03-26T06:50:36.256Z,15.00
2019-03-26T06:53:02.560Z,15.05
2019-03-26T06:55:28.869Z,15.11
2019-03-26T06:57:55.466Z,15.15
2019-03-26T07:00:21.795Z,15.18
2019-03-26T07:02:48.111Z,15.16
2019-03-26T07:05:14.454Z,15.16
2019-03-26T07:07:40.760Z,15.26
2019-03-26T07:10:07.067Z,15.20
2019-03-26T07:12:33.410Z,15.12
2019-03-26T07:14:59.681Z,15.12
2019-03-26T07:17:27.208Z,15.07
2019-03-26T07:19:52.303Z,15.08
2019-03-26T07:22:18.632Z,15.10
2019-03-26T07:24:44.944Z,14.99
2019-03-26T07:27:11.265Z,14.86
2019-03-26T07:29:37.577Z,14.81
2019-03-26T07:32:03.886Z,14.85
2019-03-26T07:34:30.194Z,14.84
2019-03-26T07:36:56.507Z,14.85
2019-03-26T07:39:22.867Z,14.89
2019-03-26T07:41:49.142Z,14.94
2019-03-26T07:44:15.453Z,14.94
2019-03-26T07:46:41.760Z,14.93
2019-03-26T07:49:08.088Z,14.84
2019-03-26T07:51:34.435Z,14.84
2019-03-26T07:54:00.751Z,14.81
2019-03-26T07:56:27.056Z,14.78
2019-03-26T07:58:53.362Z,14.77
2019-03-26T08:01:19.676Z,14.69
2019-03-26T08:03:45.983Z,14.69
2019-03-26T08:06:12.288Z,14.70
2019-03-26T08:08:40.733Z,14.69
2019-03-26T08:11:04.907Z,14.72
2019-03-26T08:13:31.261Z,14.74
2019-03-26T08:15:57.530Z,14.69
2019-03-26T08:18:23.835Z,14.67
2019-03-26T08:20:50.139Z,14.74
2019-03-26T08:23:16.447Z,14.86
2019-03-26T08:25:42.758Z,14.92
2019-03-26T08:28:09.064Z,15.02
2019-03-26T08:30:35.368Z,15.28
2019-03-26T08:33:01.677Z,15.80
2019-03-26T08:35:28.072Z,16.19
2019-03-26T08:37:54.306Z,16.47
2019-03-26T08:40:23.311Z,16.65
2019-03-26T08:42:46.982Z,16.74
2019-03-26T08:45:13.277Z,16.80
2019-03-26T08:47:39.650Z,16.86
2019-03-26T08:50:05.958Z,16.88
2019-03-26T08:52:32.266Z,16.88
2019-03-26T08:54:58.572Z,16.90
2019-03-26T08:57:24.879Z,16.90
2019-03-26T08:59:51.192Z,17.01
2019-03-26T09:02:17.546Z,17.13
2019-03-26T09:04:43.862Z,17.24
2019-03-26T09:07:11.140Z,17.27
2019-03-26T09:09:36.484Z,17.31
2019-03-26T09:12:02.796Z,17.29
2019-03-26T09:14:29.114Z,17.31
2019-03-26T09:16:55.428Z,17.37
2019-03-26T09:19:21.744Z,17.35
2019-03-26T09:21:48.054Z,17.36
2019-03-26T09:24:14.407Z,17.26
2019-03-26T09:26:40.721Z,17.23
2019-03-26T09:29:07.025Z,17.21
2019-03-26T09:31:33.336Z,17.19
2019-03-26T09:33:59.677Z,17.17
2019-03-26T09:36:25.951Z,17.20
2019-03-26T09:38:52.260Z,17.22
2019-03-26T09:41:18.585Z,17.26
2019-03-26T09:43:44.904Z,17.35
2019-03-26T09:46:11.236Z,17.38
2019-03-26T09:48:37.559Z,17.40
2019-03-26T09:51:03.876Z,17.40
2019-03-26T09:53:30.185Z,17.38
2019-03-26T09:55:56.497Z,17.31
2019-03-26T09:58:22.800Z,17.28
2019-03-26T10:00:49.317Z,17.27
2019-03-26T10:03:15.426Z,17.14
2019-03-26T10:05:41.738Z,17.08
2019-03-26T10:08:08.042Z,17.13
2019-03-26T10:10:34.357Z,16.93
2019-03-26T10:13:00.676Z,16.54
2019-03-26T10:15:29.838Z,16.21
2019-03-26T10:17:56.356Z,16.06
2019-03-26T10:20:22.623Z,16.01
2019-03-26T10:22:48.932Z,15.94
2019-03-26T10:25:15.238Z,15.83
2019-03-26T10:27:41.553Z,15.78
2019-03-26T10:30:07.938Z,15.76
2019-03-26T10:32:34.198Z,15.70
2019-03-26T10:35:00.507Z,15.70
2019-03-26T10:37:26.833Z,15.70
2019-03-26T10:39:53.139Z,15.66
2019-03-26T10:42:19.447Z,15.57
2019-03-26T10:44:45.750Z,15.54
2019-03-26T10:47:12.052Z,15.56
2019-03-26T10:49:38.392Z,15.62
2019-03-26T10:52:04.712Z,15.72
2019-03-26T10:54:30.991Z,15.84
2019-03-26T10:56:57.297Z,15.90
2019-03-26T10:59:23.608Z,15.99
2019-03-26T11:01:49.910Z,16.02
2019-03-26T11:04:16.250Z,16.05
2019-03-26T11:06:42.548Z,16.01
2019-03-26T11:09:19.925Z,16.01
2019-03-26T11:11:35.209Z,16.01
2019-03-26T11:14:01.517Z,15.88
2019-03-26T11:16:27.828Z,15.79
2019-03-26T11:18:54.132Z,15.80
2019-03-26T11:21:23.644Z,15.85
2019-03-26T11:23:49.952Z,15.86
2019-03-26T11:26:16.270Z,15.83
2019-03-26T11:28:42.577Z,15.78
2019-03-26T11:31:08.880Z,15.72
2019-03-26T11:33:35.198Z,15.74
2019-03-26T11:36:01.502Z,15.67
2019-03-26T11:38:27.816Z,15.56
2019-03-26T11:41:00.036Z,15.54
2019-03-26T11:43:26.373Z,15.48
2019-03-26T11:45:52.679Z,15.46
2019-03-26T11:48:18.996Z,15.41
2019-03-26T11:50:45.305Z,15.37
2019-03-26T11:53:11.608Z,15.36
2019-03-26T11:55:37.915Z,15.38
2019-03-26T11:58:04.224Z,15.40
2019-03-26T12:00:30.535Z,15.37
2019-03-26T12:02:56.847Z,15.30
2019-03-26T12:05:23.193Z,15.24
2019-03-26T12:07:49.496Z,15.21
2019-03-26T12:10:15.816Z,15.19
2019-03-26T12:12:42.124Z,15.18
2019-03-26T12:15:08.427Z,15.15
2019-03-26T12:17:34.746Z,15.13
2019-03-26T12:20:01.048Z,15.14
2019-03-26T12:22:27.382Z,15.09
2019-03-26T12:24:53.684Z,15.01
2019-03-26T12:27:19.996Z,14.95
2019-03-26T12:29:46.291Z,14.91
2019-03-26T12:32:12.674Z,14.86
2019-03-26T12:34:38.992Z,14.85
2019-03-26T12:37:05.298Z,14.85
2019-03-26T12:39:31.605Z,14.81
2019-03-26T12:41:57.920Z,14.82
2019-03-26T12:44:24.253Z,14.79
2019-03-26T12:46:50.564Z,14.73
2019-03-26T12:49:17.158Z,14.67
2019-03-26T12:51:43.487Z,14.56
2019-03-26T12:54:09.842Z,14.48
2019-03-26T12:56:36.142Z,14.39
2019-03-26T12:59:02.448Z,14.27
2019-03-26T13:01:28.807Z,14.17
2019-03-26T13:03:55.079Z,14.04
2019-03-26T13:06:21.385Z,13.94
2019-03-26T13:08:47.692Z,13.86
2019-03-26T13:11:16.987Z,13.79
2019-03-26T13:13:40.325Z,13.83
2019-03-26T13:16:06.623Z,13.75
2019-03-26T13:18:32.948Z,13.71
2019-03-26T13:20:59.292Z,13.69
2019-03-26T13:23:25.600Z,13.64
2019-03-26T13:25:51.915Z,13.59
2019-03-26T13:28:18.216Z,13.62
2019-03-26T13:30:44.524Z,13.63
2019-03-26T13:33:10.848Z,13.63
2019-03-26T13:35:37.170Z,13.66
2019-03-26T13:38:03.481Z,13.64
2019-03-26T13:40:29.783Z,13.64
2019-03-26T13:42:56.090Z,13.61
2019-03-26T13:45:22.396Z,13.62
2019-03-26T13:47:48.753Z,13.62
2019-03-26T13:50:15.047Z,13.62
2019-03-26T13:52:41.605Z,13.68
2019-03-26T13:55:07.909Z,13.69
2019-03-26T13:57:34.217Z,13.72
2019-03-26T14:00:00.527Z,13.72
2019-03-26T14:02:26.859Z,13.73
2019-03-26T14:04:53.172Z,13.84
2019-03-26T14:07:19.462Z,13.83
2019-03-26T14:09:45.778Z,13.85
2019-03-26T14:12:12.089Z,13.91
2019-03-26T14:14:38.398Z,13.97
2019-03-26T14:17:05.659Z,14.05
2019-03-26T14:19:31.016Z,14.10
2019-03-26T14:21:57.377Z,14.08
2019-03-26T14:24:23.739Z,14.06
2019-03-26T14:26:50.045Z,14.06
2019-03-26T14:29:16.352Z,14.04
2019-03-26T14:31:42.666Z,14.04
2019-03-26T14:34:08.976Z,14.03
2019-03-26T14:36:35.301Z,14.04
2019-03-26T14:39:01.609Z,14.00
2019-03-26T14:41:27.931Z,13.96
2019-03-26T14:43:54.261Z,13.99
2019-03-26T14:46:20.570Z,14.01
2019-03-26T14:48:46.873Z,14.00
2019-03-26T14:51:13.177Z,14.17
2019-03-26T14:53:39.748Z,14.15
2019-03-26T14:56:06.052Z,14.13
2019-03-26T14:58:32.390Z,14.09
2019-03-26T15:00:59.814Z,13.98
2019-03-26T15:03:24.997Z,13.99
2019-03-26T15:05:51.338Z,13.91
2019-03-26T15:08:17.676Z,13.90
2019-03-26T15:10:43.994Z,13.88
2019-03-26T15:13:10.302Z,13.82
2019-03-26T15:15:36.818Z,13.79
2019-03-26T15:18:02.933Z,13.80
2019-03-26T15:20:29.261Z,13.79
2019-03-26T15:22:58.122Z,13.77
2019-03-26T15:25:21.873Z,13.76
2019-03-26T15:27:48.198Z,13.74
2019-03-26T15:30:14.508Z,13.69
2019-03-26T15:32:40.812Z,13.69
2019-03-26T15:35:07.120Z,13.63
2019-03-26T15:37:33.433Z,13.59
2019-03-26T15:39:59.763Z,13.58
2019-03-26T15:42:26.071Z,13.52
2019-03-26T15:44:52.374Z,13.49
2019-03-26T15:47:18.706Z,13.46
2019-03-26T15:49:45.025Z,13.46
2019-03-26T15:52:11.329Z,13.43
2019-03-26T15:54:37.641Z,13.39
2019-03-26T15:57:03.944Z,13.37
2019-03-26T15:59:30.254Z,13.38
2019-03-26T16:01:56.563Z,13.34
2019-03-26T16:04:22.872Z,13.32
2019-03-26T16:06:49.179Z,13.29
2019-03-26T16:09:15.530Z,13.26
2019-03-26T16:11:41.838Z,13.27
2019-03-26T16:14:08.139Z,13.23
2019-03-26T16:16:34.463Z,13.23
2019-03-26T16:19:06.932Z,13.16
2019-03-26T16:21:33.625Z,13.23
2019-03-26T16:23:59.834Z,13.20
2019-03-26T16:26:26.145Z,13.17
2019-03-26T16:28:52.479Z,13.22
2019-03-26T16:31:18.750Z,13.15
2019-03-26T16:33:45.066Z,13.20
2019-03-26T16:36:11.377Z,13.17
2019-03-26T16:38:37.738Z,13.19
2019-03-26T16:41:04.047Z,13.35
2019-03-26T16:43:30.420Z,13.38
2019-03-26T16:45:56.660Z,13.37
2019-03-26T16:48:23.004Z,13.36
2019-03-26T16:50:49.337Z,13.30
2019-03-26T16:53:15.647Z,13.24
2019-03-26T16:55:41.966Z,13.22
2019-03-26T16:58:08.287Z,13.29
2019-03-26T17:00:34.602Z,13.32
2019-03-26T17:03:00.918Z,13.29
2019-03-26T17:05:27.235Z,13.26
2019-03-26T17:07:53.547Z,13.23
2019-03-26T17:10:19.849Z,13.29
2019-03-26T17:12:46.150Z,13.32
2019-03-26T17:15:12.475Z,13.23
2019-03-26T17:17:38.843Z,13.12
2019-03-26T17:20:05.162Z,13.03
2019-03-26T17:22:31.524Z,12.93
2019-03-26T17:24:57.844Z,12.94
2019-03-26T17:27:24.142Z,12.95
2019-03-26T17:29:50.473Z,12.95
2019-03-26T17:32:16.811Z,12.93
2019-03-26T17:34:43.121Z,12.99
2019-03-26T17:37:09.430Z,13.06
2019-03-26T17:39:35.819Z,13.07
2019-03-26T17:42:16.208Z,13.04
2019-03-26T17:44:28.472Z,13.10
2019-03-26T17:46:54.774Z,13.09
2019-03-26T17:49:21.154Z,13.26
2019-03-26T17:51:47.394Z,13.45
2019-03-26T17:54:13.715Z,13.45
2019-03-26T17:56:40.026Z,13.42
2019-03-26T17:59:06.387Z,13.37
2019-03-26T18:01:32.698Z,13.33
2019-03-26T18:03:59.025Z,13.32
2019-03-26T18:06:25.356Z,13.28
2019-03-26T18:08:51.734Z,13.25
2019-03-26T18:11:17.985Z,13.24
2019-03-26T18:13:44.291Z,13.19
2019-03-26T18:16:10.601Z,13.17
2019-03-26T18:18:37.040Z,13.17
2019-03-26T18:21:03.349Z,13.16
2019-03-26T18:23:29.660Z,13.11
2019-03-26T18:25:55.973Z,13.10
2019-03-26T18:28:22.278Z,13.08
2019-03-26T18:30:48.641Z,13.04
2019-03-26T18:33:14.983Z,13.04
2019-03-26T18:35:41.327Z,13.02
2019-03-26T18:38:07.604Z,12.99
2019-03-26T18:40:33.928Z,12.98
2019-03-26T18:43:00.236Z,12.97
2019-03-26T18:45:26.545Z,12.94
2019-03-26T18:47:52.859Z,12.96
2019-03-26T18:50:19.200Z,12.96
2019-03-26T18:52:45.494Z,12.95
2019-03-26T18:55:11.802Z,12.90
2019-03-26T18:57:38.108Z,12.89
2019-03-26T19:00:04.438Z,12.90
2019-03-26T19:02:30.766Z,12.89
2019-03-26T19:04:57.148Z,12.88
2019-03-26T19:07:23.477Z,12.87
2019-03-26T19:09:49.783Z,12.85
2019-03-26T19:12:16.088Z,12.84
2019-03-26T19:14:42.486Z,12.83
2019-03-26T19:17:08.844Z,12.84
2019-03-26T19:19:35.434Z,12.85
2019-03-26T19:22:01.749Z,12.85
2019-03-26T19:24:28.060Z,12.83
2019-03-26T19:26:54.369Z,12.79
2019-03-26T19:29:20.702Z,12.73
2019-03-26T19:31:47.011Z,12.72
2019-03-26T19:34:13.315Z,12.68
2019-03-26T19:36:40.714Z,12.66
2019-03-26T19:39:07.111Z,12.69
2019-03-26T19:41:33.508Z,12.67
2019-03-26T19:43:59.815Z,12.65
2019-03-26T19:46:26.193Z,12.68
2019-03-26T19:48:52.508Z,12.70
2019-03-26T19:51:18.811Z,12.66
2019-03-26T19:53:45.158Z,12.59
2019-03-26T19:56:11.474Z,12.58
2019-03-26T19:58:37.813Z,12.55
2019-03-26T20:01:04.121Z,12.50
2019-03-26T20:03:30.464Z,12.47
2019-03-26T20:05:56.784Z,12.44
2019-03-26T20:08:23.080Z,12.42
2019-03-26T20:10:49.616Z,12.39
2019-03-26T20:13:24.159Z,12.36
2019-03-26T20:15:42.457Z,12.32
2019-03-26T20:18:08.762Z,12.31
2019-03-26T20:20:35.178Z,12.35
2019-03-26T20:23:01.488Z,12.32
2019-03-26T20:25:27.841Z,12.23
2019-03-26T20:27:54.149Z,12.18
2019-03-26T20:30:20.457Z,12.18
2019-03-26T20:32:46.767Z,12.16
2019-03-26T20:35:13.073Z,12.14
2019-03-26T20:37:39.379Z,12.11
2019-03-26T20:40:05.690Z,12.13
2019-03-26T20:42:32.208Z,12.11
2019-03-26T20:44:58.519Z,12.04
2019-03-26T20:47:24.858Z,12.01
2019-03-26T20:49:51.186Z,12.02
2019-03-26T20:52:17.495Z,12.00
2019-03-26T20:54:43.836Z,11.97
2019-03-26T20:57:10.142Z,12.09
2019-03-26T20:59:36.443Z,12.09
2019-03-26T21:02:02.776Z,12.04
2019-03-26T21:04:29.093Z,12.03
2019-03-26T21:06:55.398Z,11.95
2019-03-26T21:09:21.713Z,11.93
2019-03-26T21:11:48.067Z,11.85
2019-03-26T21:14:14.334Z,11.89
2019-03-26T21:16:40.642Z,11.82
2019-03-26T21:19:06.962Z,11.83
2019-03-26T21:21:33.276Z,11.79
2019-03-26T21:23:59.585Z,11.81
2019-03-26T21:26:25.893Z,11.82
2019-03-26T21:28:52.232Z,11.84
2019-03-26T21:31:18.554Z,11.84
2019-03-26T21:33:44.895Z,11.77
2019-03-26T21:36:11.169Z,11.77
2019-03-26T21:38:37.491Z,11.77
2019-03-26T21:41:03.837Z,11.78
2019-03-26T21:43:30.156Z,11.80
2019-03-26T21:45:56.505Z,11.72
2019-03-26T21:48:22.869Z,11.70
2019-03-26T21:50:49.146Z,11.67
2019-03-26T21:53:15.464Z,11.67
2019-03-26T21:55:41.788Z,11.65
2019-03-26T21:58:08.093Z,11.63
2019-03-26T22:00:34.502Z,11.59
2019-03-26T22:03:00.810Z,11.57
2019-03-26T22:05:27.181Z,11.57
2019-03-26T22:07:53.473Z,11.57
2019-03-26T22:10:19.783Z,11.59
2019-03-26T22:12:46.092Z,11.62
2019-03-26T22:15:12.430Z,11.62
2019-03-26T22:17:38.741Z,11.62
2019-03-26T22:20:05.090Z,11.61
2019-03-26T22:22:31.372Z,11.55
2019-03-26T22:24:57.707Z,11.52
2019-03-26T22:27:24.065Z,11.48
2019-03-26T22:29:50.376Z,11.48
2019-03-26T22:32:16.687Z,11.46
2019-03-26T22:34:43.053Z,11.46
2019-03-26T22:37:09.376Z,11.43
2019-03-26T22:39:35.696Z,11.41
2019-03-26T22:42:02.001Z,11.45
2019-03-26T22:44:31.704Z,11.43
2019-03-26T22:46:54.656Z,11.42
2019-03-26T22:49:20.991Z,11.38
2019-03-26T22:51:47.306Z,11.39
2019-03-26T22:54:13.614Z,11.39
2019-03-26T22:56:39.979Z,11.39
2019-03-26T22:59:06.285Z,11.41
2019-03-26T23:01:32.601Z,11.38
2019-03-26T23:03:58.906Z,11.39
2019-03-26T23:06:25.213Z,11.40
2019-03-26T23:08:51.528Z,11.40
2019-03-26T23:11:17.827Z,11.42
2019-03-26T23:13:44.142Z,11.43
2019-03-26T23:16:10.467Z,11.40
2019-03-26T23:18:36.780Z,11.39
2019-03-26T23:21:03.087Z,11.35
2019-03-26T23:23:29.422Z,11.36
2019-03-26T23:25:55.726Z,11.34
2019-03-26T23:28:22.033Z,11.33
2019-03-26T23:30:48.597Z,11.35
2019-03-26T23:33:14.907Z,11.32
2019-03-26T23:35:41.214Z,11.31
2019-03-26T23:38:07.515Z,11.34
2019-03-26T23:40:33.829Z,11.36
2019-03-26T23:43:00.135Z,11.34
2019-03-26T23:45:26.549Z,11.30
2019-03-26T23:47:52.858Z,11.31
2019-03-26T23:50:19.197Z,11.31
2019-03-26T23:52:45.512Z,11.28
2019-03-26T23:55:11.831Z,11.27
2019-03-26T23:57:38.143Z,11.26
